createdAt,value
2023-01-28T00:14:04.398Z,992.6
2023-01-28T00:33:19.029Z,992.4
2023-01-28T00:52:34.452Z,992.5
2023-01-28T01:11:50.802Z,992.4
2023-01-28T01:31:06.558Z,992.6
2023-01-28T01:50:22.183Z,992.5
2023-01-28T02:09:37.031Z,992.5
2023-01-28T02:28:52.271Z,992.7
2023-01-28T02:48:08.227Z,992.7
2023-01-28T03:07:28.216Z,992.9
2023-01-28T03:26:40.616Z,992.9
2023-01-28T03:45:54.038Z,993.1
2023-01-28T04:05:08.621Z,993.1
2023-01-28T04:24:24.819Z,993.3
2023-01-28T04:43:39.190Z,993.5
2023-01-28T05:02:55.384Z,993.5
2023-01-28T05:22:11.487Z,993.5
2023-01-28T05:41:25.293Z,993.4
2023-01-28T06:00:41.536Z,993.6
2023-01-28T06:19:58.529Z,993.7
2023-01-28T06:39:14.069Z,993.9
2023-01-28T06:58:29.995Z,994
2023-01-28T07:17:44.701Z,994
2023-01-28T07:37:01.193Z,994
2023-01-28T07:56:17.201Z,994.2
2023-01-28T08:15:35.868Z,994.1
2023-01-28T08:34:49.865Z,994.3
2023-01-28T08:54:04.389Z,994.5
2023-01-28T09:13:19.994Z,994.6
2023-01-28T09:32:32.499Z,994.9
2023-01-28T09:51:49.206Z,995.2
2023-01-28T10:11:05.038Z,995.3
2023-01-28T10:30:19.819Z,995.1
2023-01-28T10:49:37.207Z,995.2
2023-01-28T11:08:52.310Z,995.1
2023-01-28T11:28:06.417Z,995.1
2023-01-28T11:47:23.454Z,995.2
2023-01-28T12:06:37.314Z,995
2023-01-28T12:25:53.980Z,995
2023-01-28T12:45:08.718Z,994.9
2023-01-28T13:04:24.924Z,994.9
2023-01-28T13:23:39.440Z,994.5
2023-01-28T13:42:57.543Z,994.2
2023-01-28T14:02:08.251Z,993.8
2023-01-28T14:21:23.294Z,994.5
2023-01-28T14:40:40.771Z,994.8
2023-01-28T14:59:55.153Z,994.7
2023-01-28T15:19:10.593Z,994.5
2023-01-28T15:38:22.257Z,994.2
2023-01-28T15:57:37.349Z,994.2
2023-01-28T16:16:49.422Z,994.4
2023-01-28T16:36:09.225Z,994.6
2023-01-28T16:55:20.556Z,995.4
2023-01-28T17:14:36.073Z,995.5
2023-01-28T17:33:49.359Z,995.4
2023-01-28T17:53:01.573Z,995.1
2023-01-28T18:12:17.220Z,995.6
2023-01-28T18:31:28.545Z,995.8
2023-01-28T18:50:39.157Z,995.9
2023-01-28T19:09:56.837Z,996
2023-01-28T19:29:10.141Z,995.9
2023-01-28T19:48:26.286Z,996.1
2023-01-28T20:07:42.442Z,996.2
2023-01-28T20:26:57.029Z,996.2
2023-01-28T20:46:11.421Z,996.1
2023-01-28T21:05:24.815Z,996
2023-01-28T21:24:36.781Z,995.9
2023-01-28T21:43:50.732Z,995.6
2023-01-28T22:03:04.621Z,995.5
2023-01-28T22:22:17.901Z,995.6
2023-01-28T22:41:28.562Z,995.7
2023-01-28T23:00:43.326Z,995.9
2023-01-28T23:19:59.666Z,995.8
2023-01-28T23:39:15.291Z,995.8
2023-01-28T23:58:44.341Z,995.6
